EIKN/NOC METAR and TAF weather

Enter ICAO airport designator
Station Type Date Time Source
EIKN METAR 2019/02/23 17:00 UTC NOAA

EIKN 231700Z 25011KT 9999 FEW017 BKN022 10/06 Q1027 NOSIG


Station Type Date Time Source
EIKN Decoded METAR 2019/02/23 17:00 UTC NOAA

Connaught, Ireland (EIKN) 53-54-37N 008-49-05W
Feb 23, 2019 - 12:00 PM EST / 2019.02.23 1700 UTC
Wind: from the WSW (250 degrees) at 13 MPH (11 KT):0
Visibility: greater than 7 mile(s):0
Sky conditions: mostly cloudy
Temperature: 50 F (10 C)
Dew Point: 42 F (6 C)
Relative Humidity: 76%
Pressure (altimeter): 30.33 in. Hg (1027 hPa)
ob: EIKN 231700Z 25011KT 9999 FEW017 BKN022 10/06 Q1027 NOSIG
cycle: 17

Station Type Date Time Source
EIKN TAF 2019/02/23 18:09 UTC NOAA

TAF EIKN 231700Z 2318/2418 25010KT 9999 FEW012 BKN020
BECMG 2318/2321 14005KT PROB30
TEMPO 2323/2402 0500 FG BKN001
BECMG 2401/2404 14012KT 2000 BR SCT001 BKN003
TEMPO 2402/2407 0500 FG BKN001
BECMG 2407/2409 14015G25KT 8000 NSW BKN010 PROB40
TEMPO 2409/2412 3000 BR BKN003
BECMG 2411/2413 9999 SCT010
BECMG 2416/2418 15013KT


Example: see airport list